sensor_id;sensor_type;location;lat;lon;timestamp;P1;durP1;ratioP1;P2;durP2;ratioP2
22107;SDS011;11220;48.812;9.128;2022-07-17T00:01:33;0.60;;;0.60;;
22107;SDS011;11220;48.812;9.128;2022-07-17T00:04:01;0.60;;;0.60;;
22107;SDS011;11220;48.812;9.128;2022-07-17T00:06:32;0.77;;;0.70;;
22107;SDS011;11220;48.812;9.128;2022-07-17T00:09:05;0.77;;;0.73;;
22107;SDS011;11220;48.812;9.128;2022-07-17T00:11:39;0.80;;;0.70;;
22107;SDS011;11220;48.812;9.128;2022-07-17T00:14:06;0.60;;;0.60;;
22107;SDS011;11220;48.812;9.128;2022-07-17T00:16:35;0.60;;;0.60;;
22107;SDS011;11220;48.812;9.128;2022-07-17T00:19:03;0.95;;;0.68;;
22107;SDS011;11220;48.812;9.128;2022-07-17T00:21:32;0.70;;;0.70;;
22107;SDS011;11220;48.812;9.128;2022-07-17T00:24:08;0.70;;;0.60;;
22107;SDS011;11220;48.812;9.128;2022-07-17T00:26:35;0.70;;;0.70;;
22107;SDS011;11220;48.812;9.128;2022-07-17T00:29:04;0.80;;;0.80;;
22107;SDS011;11220;48.812;9.128;2022-07-17T00:31:30;0.60;;;0.60;;
22107;SDS011;11220;48.812;9.128;2022-07-17T00:33:56;0.82;;;0.80;;
22107;SDS011;11220;48.812;9.128;2022-07-17T00:36:22;1.35;;;0.68;;
22107;SDS011;11220;48.812;9.128;2022-07-17T00:38:48;0.68;;;0.68;;
22107;SDS011;11220;48.812;9.128;2022-07-17T00:41:14;0.73;;;0.73;;
22107;SDS011;11220;48.812;9.128;2022-07-17T00:43:48;0.77;;;0.68;;
22107;SDS011;11220;48.812;9.128;2022-07-17T00:46:14;0.70;;;0.70;;
22107;SDS011;11220;48.812;9.128;2022-07-17T00:48:40;0.80;;;0.80;;
22107;SDS011;11220;48.812;9.128;2022-07-17T00:51:15;0.63;;;0.63;;
22107;SDS011;11220;48.812;9.128;2022-07-17T00:53:49;0.70;;;0.70;;
22107;SDS011;11220;48.812;9.128;2022-07-17T00:56:39;0.73;;;0.73;;
22107;SDS011;11220;48.812;9.128;2022-07-17T00:59:10;0.85;;;0.80;;
22107;SDS011;11220;48.812;9.128;2022-07-17T01:01:46;0.95;;;0.93;;
22107;SDS011;11220;48.812;9.128;2022-07-17T01:04:47;1.95;;;0.80;;
22107;SDS011;11220;48.812;9.128;2022-07-17T01:07:15;0.90;;;0.80;;
22107;SDS011;11220;48.812;9.128;2022-07-17T01:09:43;0.80;;;0.70;;
22107;SDS011;11220;48.812;9.128;2022-07-17T01:12:15;0.73;;;0.73;;
22107;SDS011;11220;48.812;9.128;2022-07-17T01:14:41;0.70;;;0.70;;
22107;SDS011;11220;48.812;9.128;2022-07-17T01:17:11;0.55;;;0.55;;
22107;SDS011;11220;48.812;9.128;2022-07-17T01:19:37;0.80;;;0.80;;
22107;SDS011;11220;48.812;9.128;2022-07-17T01:22:03;0.80;;;0.80;;
22107;SDS011;11220;48.812;9.128;2022-07-17T01:24:32;1.00;;;0.80;;
22107;SDS011;11220;48.812;9.128;2022-07-17T01:26:57;0.75;;;0.75;;
22107;SDS011;11220;48.812;9.128;2022-07-17T01:29:23;0.80;;;0.80;;
22107;SDS011;11220;48.812;9.128;2022-07-17T01:31:54;0.70;;;0.70;;
22107;SDS011;11220;48.812;9.128;2022-07-17T01:34:25;0.80;;;0.80;;
22107;SDS011;11220;48.812;9.128;2022-07-17T01:37:01;0.80;;;0.60;;
22107;SDS011;11220;48.812;9.128;2022-07-17T01:39:30;0.70;;;0.70;;
22107;SDS011;11220;48.812;9.128;2022-07-17T01:42:19;0.65;;;0.65;;
22107;SDS011;11220;48.812;9.128;2022-07-17T01:44:57;0.70;;;0.70;;
22107;SDS011;11220;48.812;9.128;2022-07-17T01:47:28;0.80;;;0.80;;
22107;SDS011;11220;48.812;9.128;2022-07-17T01:50:11;0.73;;;0.73;;
22107;SDS011;11220;48.812;9.128;2022-07-17T01:52:40;0.80;;;0.80;;
22107;SDS011;11220;48.812;9.128;2022-07-17T01:55:11;0.85;;;0.85;;
22107;SDS011;11220;48.812;9.128;2022-07-17T01:57:42;0.73;;;0.73;;
22107;SDS011;11220;48.812;9.128;2022-07-17T02:00:13;0.70;;;0.70;;
22107;SDS011;11220;48.812;9.128;2022-07-17T02:02:49;0.85;;;0.85;;
22107;SDS011;11220;48.812;9.128;2022-07-17T02:05:17;1.08;;;0.80;;
22107;SDS011;11220;48.812;9.128;2022-07-17T02:07:48;1.58;;;0.98;;
22107;SDS011;11220;48.812;9.128;2022-07-17T02:10:19;1.00;;;0.90;;
22107;SDS011;11220;48.812;9.128;2022-07-17T02:12:46;0.70;;;0.70;;
22107;SDS011;11220;48.812;9.128;2022-07-17T02:15:25;0.70;;;0.70;;
22107;SDS011;11220;48.812;9.128;2022-07-17T02:17:59;1.00;;;0.90;;
22107;SDS011;11220;48.812;9.128;2022-07-17T02:20:45;0.80;;;0.80;;
22107;SDS011;11220;48.812;9.128;2022-07-17T02:23:17;0.80;;;0.80;;
22107;SDS011;11220;48.812;9.128;2022-07-17T02:26:12;0.75;;;0.75;;
22107;SDS011;11220;48.812;9.128;2022-07-17T02:28:47;0.80;;;0.75;;
22107;SDS011;11220;48.812;9.128;2022-07-17T02:31:18;0.73;;;0.73;;
22107;SDS011;11220;48.812;9.128;2022-07-17T02:33:46;0.90;;;0.80;;
22107;SDS011;11220;48.812;9.128;2022-07-17T02:36:32;1.15;;;0.60;;
22107;SDS011;11220;48.812;9.128;2022-07-17T02:39:21;0.60;;;0.60;;
22107;SDS011;11220;48.812;9.128;2022-07-17T02:42:05;0.60;;;0.60;;
22107;SDS011;11220;48.812;9.128;2022-07-17T02:44:31;0.90;;;0.80;;
22107;SDS011;11220;48.812;9.128;2022-07-17T02:47:10;1.02;;;0.93;;
22107;SDS011;11220;48.812;9.128;2022-07-17T02:49:38;0.82;;;0.80;;
22107;SDS011;11220;48.812;9.128;2022-07-17T02:52:10;0.80;;;0.80;;
22107;SDS011;11220;48.812;9.128;2022-07-17T02:54:49;0.80;;;0.80;;
22107;SDS011;11220;48.812;9.128;2022-07-17T02:57:21;0.80;;;0.80;;
22107;SDS011;11220;48.812;9.128;2022-07-17T03:00:11;0.80;;;0.80;;
22107;SDS011;11220;48.812;9.128;2022-07-17T03:05:53;1.00;;;0.80;;
22107;SDS011;11220;48.812;9.128;2022-07-17T03:08:40;1.08;;;0.95;;
22107;SDS011;11220;48.812;9.128;2022-07-17T03:11:11;0.70;;;0.70;;
22107;SDS011;11220;48.812;9.128;2022-07-17T03:14:32;0.77;;;0.77;;
22107;SDS011;11220;48.812;9.128;2022-07-17T03:17:17;0.90;;;0.90;;
22107;SDS011;11220;48.812;9.128;2022-07-17T03:23:17;1.00;;;0.90;;
22107;SDS011;11220;48.812;9.128;2022-07-17T03:25:43;0.80;;;0.70;;
22107;SDS011;11220;48.812;9.128;2022-07-17T03:28:12;1.35;;;1.13;;
22107;SDS011;11220;48.812;9.128;2022-07-17T03:30:49;0.80;;;0.80;;
22107;SDS011;11220;48.812;9.128;2022-07-17T03:33:34;0.80;;;0.80;;
22107;SDS011;11220;48.812;9.128;2022-07-17T03:36:00;1.20;;;0.80;;
22107;SDS011;11220;48.812;9.128;2022-07-17T03:41:28;0.80;;;0.80;;
22107;SDS011;11220;48.812;9.128;2022-07-17T03:44:28;0.98;;;0.90;;
22107;SDS011;11220;48.812;9.128;2022-07-17T03:47:23;0.88;;;0.88;;
22107;SDS011;11220;48.812;9.128;2022-07-17T03:50:11;0.80;;;0.80;;
22107;SDS011;11220;48.812;9.128;2022-07-17T03:53:03;0.80;;;0.80;;
22107;SDS011;11220;48.812;9.128;2022-07-17T03:55:37;0.80;;;0.80;;
22107;SDS011;11220;48.812;9.128;2022-07-17T03:58:37;0.70;;;0.70;;
22107;SDS011;11220;48.812;9.128;2022-07-17T07:13:07;0.70;;;0.70;;
22107;SDS011;11220;48.812;9.128;2022-07-17T07:15:32;0.80;;;0.80;;
22107;SDS011;11220;48.812;9.128;2022-07-17T07:17:58;0.98;;;0.93;;
22107;SDS011;11220;48.812;9.128;2022-07-17T07:20:23;0.88;;;0.88;;
22107;SDS011;11220;48.812;9.128;2022-07-17T07:22:49;0.88;;;0.73;;
22107;SDS011;11220;48.812;9.128;2022-07-17T07:25:15;1.20;;;0.88;;
22107;SDS011;11220;48.812;9.128;2022-07-17T07:27:40;0.95;;;0.90;;
22107;SDS011;11220;48.812;9.128;2022-07-17T07:30:06;0.77;;;0.77;;
22107;SDS011;11220;48.812;9.128;2022-07-17T07:32:34;0.65;;;0.65;;
22107;SDS011;11220;48.812;9.128;2022-07-17T07:35:01;0.70;;;0.70;;
22107;SDS011;11220;48.812;9.128;2022-07-17T07:37:26;0.70;;;0.70;;
22107;SDS011;11220;48.812;9.128;2022-07-17T07:39:52;0.85;;;0.80;;
22107;SDS011;11220;48.812;9.128;2022-07-17T07:42:17;0.77;;;0.77;;
22107;SDS011;11220;48.812;9.128;2022-07-17T07:44:43;0.80;;;0.80;;
22107;SDS011;11220;48.812;9.128;2022-07-17T07:47:08;1.00;;;0.90;;
22107;SDS011;11220;48.812;9.128;2022-07-17T07:49:34;0.80;;;0.80;;
22107;SDS011;11220;48.812;9.128;2022-07-17T07:51:59;0.90;;;0.80;;
22107;SDS011;11220;48.812;9.128;2022-07-17T07:54:25;0.60;;;0.60;;
22107;SDS011;11220;48.812;9.128;2022-07-17T07:56:51;0.75;;;0.70;;
22107;SDS011;11220;48.812;9.128;2022-07-17T07:59:16;0.90;;;0.90;;
22107;SDS011;11220;48.812;9.128;2022-07-17T08:01:42;0.90;;;0.80;;
22107;SDS011;11220;48.812;9.128;2022-07-17T08:04:08;0.80;;;0.80;;
22107;SDS011;11220;48.812;9.128;2022-07-17T08:06:34;0.60;;;0.60;;
22107;SDS011;11220;48.812;9.128;2022-07-17T08:08:59;0.95;;;0.90;;
22107;SDS011;11220;48.812;9.128;2022-07-17T08:11:25;0.80;;;0.77;;
22107;SDS011;11220;48.812;9.128;2022-07-17T08:13:51;1.00;;;0.90;;
22107;SDS011;11220;48.812;9.128;2022-07-17T08:16:16;0.80;;;0.80;;
22107;SDS011;11220;48.812;9.128;2022-07-17T08:18:42;0.65;;;0.65;;
22107;SDS011;11220;48.812;9.128;2022-07-17T08:21:08;0.80;;;0.80;;
22107;SDS011;11220;48.812;9.128;2022-07-17T08:23:33;1.73;;;0.70;;
22107;SDS011;11220;48.812;9.128;2022-07-17T08:25:59;0.70;;;0.70;;
22107;SDS011;11220;48.812;9.128;2022-07-17T08:28:25;0.80;;;0.80;;
22107;SDS011;11220;48.812;9.128;2022-07-17T08:30:50;1.10;;;0.77;;
22107;SDS011;11220;48.812;9.128;2022-07-17T08:33:17;0.80;;;0.68;;
22107;SDS011;11220;48.812;9.128;2022-07-17T08:35:43;0.73;;;0.70;;
22107;SDS011;11220;48.812;9.128;2022-07-17T08:38:08;0.82;;;0.80;;
22107;SDS011;11220;48.812;9.128;2022-07-17T08:40:35;0.70;;;0.68;;
22107;SDS011;11220;48.812;9.128;2022-07-17T08:43:02;0.70;;;0.70;;
22107;SDS011;11220;48.812;9.128;2022-07-17T08:45:29;0.70;;;0.70;;
22107;SDS011;11220;48.812;9.128;2022-07-17T08:47:55;0.55;;;0.55;;
22107;SDS011;11220;48.812;9.128;2022-07-17T08:50:30;0.70;;;0.60;;
22107;SDS011;11220;48.812;9.128;2022-07-17T08:52:57;0.80;;;0.70;;
22107;SDS011;11220;48.812;9.128;2022-07-17T08:55:24;0.70;;;0.68;;
22107;SDS011;11220;48.812;9.128;2022-07-17T08:57:49;0.80;;;0.80;;
22107;SDS011;11220;48.812;9.128;2022-07-17T09:00:16;0.65;;;0.65;;
22107;SDS011;11220;48.812;9.128;2022-07-17T09:02:53;0.60;;;0.60;;
22107;SDS011;11220;48.812;9.128;2022-07-17T09:05:23;0.70;;;0.70;;
22107;SDS011;11220;48.812;9.128;2022-07-17T09:07:50;0.80;;;0.63;;
22107;SDS011;11220;48.812;9.128;2022-07-17T09:10:16;0.85;;;0.70;;
22107;SDS011;11220;48.812;9.128;2022-07-17T09:12:41;0.80;;;0.80;;
22107;SDS011;11220;48.812;9.128;2022-07-17T09:15:19;0.60;;;0.60;;
22107;SDS011;11220;48.812;9.128;2022-07-17T09:17:51;0.70;;;0.60;;
22107;SDS011;11220;48.812;9.128;2022-07-17T09:20:20;0.57;;;0.55;;
22107;SDS011;11220;48.812;9.128;2022-07-17T09:22:58;0.60;;;0.60;;
22107;SDS011;11220;48.812;9.128;2022-07-17T09:28:09;0.50;;;0.50;;
22107;SDS011;11220;48.812;9.128;2022-07-17T09:30:37;0.60;;;0.60;;
22107;SDS011;11220;48.812;9.128;2022-07-17T09:33:15;0.65;;;0.65;;
22107;SDS011;11220;48.812;9.128;2022-07-17T09:35:52;0.68;;;0.68;;
22107;SDS011;11220;48.812;9.128;2022-07-17T09:38:34;0.93;;;0.47;;
22107;SDS011;11220;48.812;9.128;2022-07-17T09:41:05;0.70;;;0.70;;
22107;SDS011;11220;48.812;9.128;2022-07-17T09:43:46;0.60;;;0.60;;
22107;SDS011;11220;48.812;9.128;2022-07-17T09:48:52;0.70;;;0.60;;
22107;SDS011;11220;48.812;9.128;2022-07-17T09:53:47;0.70;;;0.70;;
22107;SDS011;11220;48.812;9.128;2022-07-17T09:56:14;0.50;;;0.50;;
22107;SDS011;11220;48.812;9.128;2022-07-17T09:58:43;1.10;;;0.73;;
22107;SDS011;11220;48.812;9.128;2022-07-17T10:01:13;0.70;;;0.60;;
22107;SDS011;11220;48.812;9.128;2022-07-17T10:03:40;0.70;;;0.68;;
22107;SDS011;11220;48.812;9.128;2022-07-17T10:06:08;0.60;;;0.60;;
22107;SDS011;11220;48.812;9.128;2022-07-17T10:08:35;0.70;;;0.70;;
22107;SDS011;11220;48.812;9.128;2022-07-17T10:11:02;0.80;;;0.70;;
22107;SDS011;11220;48.812;9.128;2022-07-17T10:13:29;0.50;;;0.50;;
22107;SDS011;11220;48.812;9.128;2022-07-17T10:15:56;0.52;;;0.52;;
22107;SDS011;11220;48.812;9.128;2022-07-17T10:18:33;0.60;;;0.60;;
22107;SDS011;11220;48.812;9.128;2022-07-17T10:21:32;1.00;;;0.82;;
22107;SDS011;11220;48.812;9.128;2022-07-17T10:26:30;0.60;;;0.60;;
22107;SDS011;11220;48.812;9.128;2022-07-17T10:28:56;0.57;;;0.57;;
22107;SDS011;11220;48.812;9.128;2022-07-17T10:31:23;0.60;;;0.60;;
22107;SDS011;11220;48.812;9.128;2022-07-17T10:33:57;0.60;;;0.60;;
22107;SDS011;11220;48.812;9.128;2022-07-17T10:39:15;0.60;;;0.60;;
22107;SDS011;11220;48.812;9.128;2022-07-17T10:41:42;0.50;;;0.50;;
22107;SDS011;11220;48.812;9.128;2022-07-17T10:44:29;0.60;;;0.60;;
22107;SDS011;11220;48.812;9.128;2022-07-17T10:46:57;0.50;;;0.50;;
22107;SDS011;11220;48.812;9.128;2022-07-17T10:49:23;0.60;;;0.60;;
22107;SDS011;11220;48.812;9.128;2022-07-17T10:51:50;0.70;;;0.70;;
22107;SDS011;11220;48.812;9.128;2022-07-17T10:54:16;0.68;;;0.68;;
22107;SDS011;11220;48.812;9.128;2022-07-17T10:56:42;0.63;;;0.50;;
22107;SDS011;11220;48.812;9.128;2022-07-17T10:59:11;0.50;;;0.50;;
22107;SDS011;11220;48.812;9.128;2022-07-17T11:01:38;0.68;;;0.68;;
22107;SDS011;11220;48.812;9.128;2022-07-17T11:04:04;0.77;;;0.77;;
22107;SDS011;11220;48.812;9.128;2022-07-17T11:06:37;0.55;;;0.55;;
22107;SDS011;11220;48.812;9.128;2022-07-17T11:11:39;0.57;;;0.57;;
22107;SDS011;11220;48.812;9.128;2022-07-17T11:14:07;0.60;;;0.60;;
22107;SDS011;11220;48.812;9.128;2022-07-17T11:17:00;0.65;;;0.65;;
22107;SDS011;11220;48.812;9.128;2022-07-17T11:19:27;0.50;;;0.40;;
22107;SDS011;11220;48.812;9.128;2022-07-17T11:22:01;0.50;;;0.50;;
22107;SDS011;11220;48.812;9.128;2022-07-17T11:24:37;0.50;;;0.50;;
22107;SDS011;11220;48.812;9.128;2022-07-17T11:27:10;0.60;;;0.60;;
22107;SDS011;11220;48.812;9.128;2022-07-17T11:29:39;0.45;;;0.45;;
22107;SDS011;11220;48.812;9.128;2022-07-17T11:32:05;0.50;;;0.50;;
22107;SDS011;11220;48.812;9.128;2022-07-17T11:34:31;0.50;;;0.50;;
22107;SDS011;11220;48.812;9.128;2022-07-17T11:37:01;0.60;;;0.60;;
22107;SDS011;11220;48.812;9.128;2022-07-17T11:39:37;0.50;;;0.50;;
22107;SDS011;11220;48.812;9.128;2022-07-17T11:42:07;0.73;;;0.40;;
22107;SDS011;11220;48.812;9.128;2022-07-17T11:44:34;0.75;;;0.52;;
22107;SDS011;11220;48.812;9.128;2022-07-17T11:47:00;0.88;;;0.88;;
22107;SDS011;11220;48.812;9.128;2022-07-17T11:49:30;0.70;;;0.70;;
22107;SDS011;11220;48.812;9.128;2022-07-17T11:55:04;1.52;;;1.20;;
22107;SDS011;11220;48.812;9.128;2022-07-17T11:57:30;2.05;;;1.50;;
22107;SDS011;11220;48.812;9.128;2022-07-17T12:00:14;3.08;;;1.77;;
22107;SDS011;11220;48.812;9.128;2022-07-17T12:02:42;2.85;;;1.80;;
22107;SDS011;11220;48.812;9.128;2022-07-17T12:05:08;4.63;;;2.50;;
22107;SDS011;11220;48.812;9.128;2022-07-17T12:10:17;6.85;;;3.08;;
22107;SDS011;11220;48.812;9.128;2022-07-17T12:12:54;6.32;;;3.45;;
22107;SDS011;11220;48.812;9.128;2022-07-17T12:15:21;7.10;;;3.65;;
22107;SDS011;11220;48.812;9.128;2022-07-17T12:17:58;7.75;;;4.38;;
22107;SDS011;11220;48.812;9.128;2022-07-17T12:20:24;6.40;;;3.70;;
22107;SDS011;11220;48.812;9.128;2022-07-17T12:22:50;7.47;;;4.57;;
22107;SDS011;11220;48.812;9.128;2022-07-17T12:25:23;10.52;;;5.22;;
22107;SDS011;11220;48.812;9.128;2022-07-17T12:27:50;9.95;;;5.22;;
22107;SDS011;11220;48.812;9.128;2022-07-17T12:30:16;10.45;;;5.60;;
22107;SDS011;11220;48.812;9.128;2022-07-17T12:32:42;12.80;;;6.35;;
22107;SDS011;11220;48.812;9.128;2022-07-17T12:35:08;12.30;;;7.15;;
22107;SDS011;11220;48.812;9.128;2022-07-17T12:37:34;11.90;;;6.78;;
22107;SDS011;11220;48.812;9.128;2022-07-17T12:39:59;12.00;;;6.70;;
22107;SDS011;11220;48.812;9.128;2022-07-17T12:42:25;13.45;;;7.00;;
22107;SDS011;11220;48.812;9.128;2022-07-17T12:44:50;15.10;;;8.07;;
22107;SDS011;11220;48.812;9.128;2022-07-17T12:47:16;15.27;;;8.30;;
22107;SDS011;11220;48.812;9.128;2022-07-17T12:49:41;14.65;;;7.88;;
22107;SDS011;11220;48.812;9.128;2022-07-17T12:52:07;14.38;;;8.07;;
22107;SDS011;11220;48.812;9.128;2022-07-17T12:54:33;15.85;;;7.40;;
22107;SDS011;11220;48.812;9.128;2022-07-17T12:56:58;13.60;;;7.55;;
22107;SDS011;11220;48.812;9.128;2022-07-17T12:59:24;14.45;;;8.18;;
22107;SDS011;11220;48.812;9.128;2022-07-17T13:01:50;13.80;;;7.78;;
22107;SDS011;11220;48.812;9.128;2022-07-17T13:04:15;15.60;;;7.53;;
22107;SDS011;11220;48.812;9.128;2022-07-17T13:06:41;13.75;;;7.47;;
22107;SDS011;11220;48.812;9.128;2022-07-17T13:09:06;14.45;;;8.13;;
22107;SDS011;11220;48.812;9.128;2022-07-17T13:11:32;13.25;;;7.70;;
22107;SDS011;11220;48.812;9.128;2022-07-17T13:13:58;15.73;;;7.75;;
22107;SDS011;11220;48.812;9.128;2022-07-17T13:16:24;13.80;;;8.10;;
22107;SDS011;11220;48.812;9.128;2022-07-17T13:18:50;13.95;;;8.10;;
22107;SDS011;11220;48.812;9.128;2022-07-17T13:21:15;11.90;;;7.40;;
22107;SDS011;11220;48.812;9.128;2022-07-17T13:23:41;17.33;;;8.75;;
22107;SDS011;11220;48.812;9.128;2022-07-17T13:26:07;15.77;;;8.60;;
22107;SDS011;11220;48.812;9.128;2022-07-17T13:28:32;14.77;;;8.48;;
22107;SDS011;11220;48.812;9.128;2022-07-17T13:30:58;16.83;;;9.02;;
22107;SDS011;11220;48.812;9.128;2022-07-17T13:33:24;16.75;;;8.82;;
22107;SDS011;11220;48.812;9.128;2022-07-17T13:35:50;15.63;;;8.50;;
22107;SDS011;11220;48.812;9.128;2022-07-17T13:38:16;16.25;;;8.93;;
22107;SDS011;11220;48.812;9.128;2022-07-17T13:40:41;15.75;;;8.27;;
22107;SDS011;11220;48.812;9.128;2022-07-17T13:43:07;12.82;;;8.45;;
22107;SDS011;11220;48.812;9.128;2022-07-17T13:45:32;14.25;;;8.73;;
22107;SDS011;11220;48.812;9.128;2022-07-17T13:47:59;15.48;;;9.32;;
22107;SDS011;11220;48.812;9.128;2022-07-17T13:50:25;15.63;;;9.00;;
22107;SDS011;11220;48.812;9.128;2022-07-17T13:52:51;17.33;;;9.68;;
22107;SDS011;11220;48.812;9.128;2022-07-17T13:55:17;15.13;;;8.77;;
22107;SDS011;11220;48.812;9.128;2022-07-17T13:57:42;15.80;;;9.75;;
22107;SDS011;11220;48.812;9.128;2022-07-17T14:00:08;15.13;;;9.25;;
22107;SDS011;11220;48.812;9.128;2022-07-17T14:02:35;15.43;;;9.27;;
22107;SDS011;11220;48.812;9.128;2022-07-17T14:05:03;18.10;;;9.55;;
22107;SDS011;11220;48.812;9.128;2022-07-17T14:07:29;14.68;;;9.18;;
22107;SDS011;11220;48.812;9.128;2022-07-17T14:09:55;17.05;;;9.50;;
22107;SDS011;11220;48.812;9.128;2022-07-17T14:12:21;15.45;;;9.35;;
22107;SDS011;11220;48.812;9.128;2022-07-17T14:14:46;16.58;;;9.27;;
22107;SDS011;11220;48.812;9.128;2022-07-17T14:17:12;16.48;;;9.55;;
22107;SDS011;11220;48.812;9.128;2022-07-17T14:19:37;16.80;;;9.02;;
22107;SDS011;11220;48.812;9.128;2022-07-17T14:22:03;15.02;;;9.55;;
22107;SDS011;11220;48.812;9.128;2022-07-17T14:24:29;18.17;;;9.25;;
22107;SDS011;11220;48.812;9.128;2022-07-17T14:26:55;16.25;;;9.23;;
22107;SDS011;11220;48.812;9.128;2022-07-17T14:29:20;16.75;;;9.88;;
22107;SDS011;11220;48.812;9.128;2022-07-17T14:31:46;15.85;;;9.77;;
22107;SDS011;11220;48.812;9.128;2022-07-17T14:34:12;16.77;;;9.18;;
22107;SDS011;11220;48.812;9.128;2022-07-17T14:36:38;17.42;;;8.82;;
22107;SDS011;11220;48.812;9.128;2022-07-17T14:39:04;17.52;;;9.38;;
22107;SDS011;11220;48.812;9.128;2022-07-17T14:41:29;17.00;;;9.48;;
22107;SDS011;11220;48.812;9.128;2022-07-17T14:43:55;15.88;;;8.95;;
22107;SDS011;11220;48.812;9.128;2022-07-17T14:46:21;17.13;;;9.55;;
22107;SDS011;11220;48.812;9.128;2022-07-17T14:48:47;14.35;;;8.80;;
22107;SDS011;11220;48.812;9.128;2022-07-17T14:51:12;16.95;;;8.73;;
22107;SDS011;11220;48.812;9.128;2022-07-17T14:53:38;15.20;;;8.90;;
22107;SDS011;11220;48.812;9.128;2022-07-17T14:56:03;15.20;;;9.05;;
22107;SDS011;11220;48.812;9.128;2022-07-17T14:58:29;14.75;;;8.70;;
22107;SDS011;11220;48.812;9.128;2022-07-17T15:00:55;16.30;;;9.00;;
22107;SDS011;11220;48.812;9.128;2022-07-17T15:03:20;15.48;;;9.43;;
22107;SDS011;11220;48.812;9.128;2022-07-17T15:05:46;17.83;;;9.25;;
22107;SDS011;11220;48.812;9.128;2022-07-17T15:08:11;15.35;;;9.25;;
22107;SDS011;11220;48.812;9.128;2022-07-17T15:10:37;16.25;;;9.00;;
22107;SDS011;11220;48.812;9.128;2022-07-17T15:13:02;15.20;;;9.13;;
22107;SDS011;11220;48.812;9.128;2022-07-17T15:15:28;14.30;;;8.57;;
22107;SDS011;11220;48.812;9.128;2022-07-17T15:17:54;15.18;;;9.35;;
22107;SDS011;11220;48.812;9.128;2022-07-17T15:20:19;14.65;;;8.80;;
22107;SDS011;11220;48.812;9.128;2022-07-17T15:22:45;13.43;;;8.75;;
22107;SDS011;11220;48.812;9.128;2022-07-17T15:25:11;13.57;;;8.82;;
22107;SDS011;11220;48.812;9.128;2022-07-17T15:27:37;13.27;;;8.38;;
22107;SDS011;11220;48.812;9.128;2022-07-17T15:30:03;14.77;;;8.77;;
22107;SDS011;11220;48.812;9.128;2022-07-17T15:32:29;18.63;;;9.85;;
22107;SDS011;11220;48.812;9.128;2022-07-17T15:34:55;16.30;;;9.73;;
22107;SDS011;11220;48.812;9.128;2022-07-17T15:37:21;15.05;;;8.88;;
22107;SDS011;11220;48.812;9.128;2022-07-17T15:39:49;15.30;;;9.00;;
22107;SDS011;11220;48.812;9.128;2022-07-17T15:42:14;15.38;;;9.85;;
22107;SDS011;11220;48.812;9.128;2022-07-17T15:44:40;16.70;;;9.32;;
22107;SDS011;11220;48.812;9.128;2022-07-17T15:47:05;15.50;;;9.02;;
22107;SDS011;11220;48.812;9.128;2022-07-17T15:49:31;15.40;;;8.68;;
22107;SDS011;11220;48.812;9.128;2022-07-17T15:51:56;14.90;;;9.65;;
22107;SDS011;11220;48.812;9.128;2022-07-17T15:54:22;13.07;;;8.88;;
22107;SDS011;11220;48.812;9.128;2022-07-17T15:56:48;14.30;;;8.68;;
22107;SDS011;11220;48.812;9.128;2022-07-17T15:59:13;13.82;;;8.05;;
22107;SDS011;11220;48.812;9.128;2022-07-17T16:01:40;15.73;;;9.18;;
22107;SDS011;11220;48.812;9.128;2022-07-17T16:04:05;12.55;;;8.05;;
22107;SDS011;11220;48.812;9.128;2022-07-17T16:06:31;16.08;;;9.02;;
22107;SDS011;11220;48.812;9.128;2022-07-17T16:08:57;15.38;;;8.90;;
22107;SDS011;11220;48.812;9.128;2022-07-17T16:11:26;15.20;;;9.25;;
22107;SDS011;11220;48.812;9.128;2022-07-17T16:13:52;14.43;;;8.60;;
22107;SDS011;11220;48.812;9.128;2022-07-17T16:16:17;16.27;;;8.55;;
22107;SDS011;11220;48.812;9.128;2022-07-17T16:18:43;14.93;;;8.77;;
22107;SDS011;11220;48.812;9.128;2022-07-17T16:21:09;13.43;;;8.43;;
22107;SDS011;11220;48.812;9.128;2022-07-17T16:23:36;14.23;;;8.70;;
22107;SDS011;11220;48.812;9.128;2022-07-17T16:26:02;11.77;;;7.78;;
22107;SDS011;11220;48.812;9.128;2022-07-17T16:28:27;15.23;;;8.65;;
22107;SDS011;11220;48.812;9.128;2022-07-17T16:30:53;14.85;;;7.93;;
22107;SDS011;11220;48.812;9.128;2022-07-17T16:33:20;12.20;;;7.88;;
22107;SDS011;11220;48.812;9.128;2022-07-17T16:35:46;12.70;;;7.55;;
22107;SDS011;11220;48.812;9.128;2022-07-17T16:38:13;14.00;;;8.43;;
22107;SDS011;11220;48.812;9.128;2022-07-17T16:40:39;14.25;;;7.88;;
22107;SDS011;11220;48.812;9.128;2022-07-17T16:43:05;13.38;;;7.95;;
22107;SDS011;11220;48.812;9.128;2022-07-17T16:45:31;13.20;;;7.80;;
22107;SDS011;11220;48.812;9.128;2022-07-17T16:47:57;12.25;;;7.72;;
22107;SDS011;11220;48.812;9.128;2022-07-17T16:50:23;12.38;;;7.90;;
22107;SDS011;11220;48.812;9.128;2022-07-17T16:52:51;13.45;;;8.05;;
22107;SDS011;11220;48.812;9.128;2022-07-17T16:55:17;13.07;;;7.70;;
22107;SDS011;11220;48.812;9.128;2022-07-17T16:57:42;11.82;;;7.32;;
22107;SDS011;11220;48.812;9.128;2022-07-17T17:00:08;11.82;;;7.28;;
22107;SDS011;11220;48.812;9.128;2022-07-17T17:02:34;12.60;;;7.68;;
22107;SDS011;11220;48.812;9.128;2022-07-17T17:05:01;11.55;;;7.25;;
22107;SDS011;11220;48.812;9.128;2022-07-17T17:07:27;12.07;;;7.55;;
22107;SDS011;11220;48.812;9.128;2022-07-17T17:09:53;10.48;;;6.63;;
22107;SDS011;11220;48.812;9.128;2022-07-17T17:12:19;12.07;;;7.18;;
22107;SDS011;11220;48.812;9.128;2022-07-17T17:14:44;11.07;;;6.70;;
22107;SDS011;11220;48.812;9.128;2022-07-17T17:17:10;12.20;;;7.85;;
22107;SDS011;11220;48.812;9.128;2022-07-17T17:19:35;11.88;;;7.22;;
22107;SDS011;11220;48.812;9.128;2022-07-17T17:22:01;11.23;;;6.50;;
22107;SDS011;11220;48.812;9.128;2022-07-17T17:24:26;10.75;;;6.53;;
22107;SDS011;11220;48.812;9.128;2022-07-17T17:26:52;13.32;;;7.18;;
22107;SDS011;11220;48.812;9.128;2022-07-17T17:29:17;11.00;;;7.13;;
22107;SDS011;11220;48.812;9.128;2022-07-17T17:31:43;10.75;;;6.40;;
22107;SDS011;11220;48.812;9.128;2022-07-17T17:34:08;11.63;;;6.82;;
22107;SDS011;11220;48.812;9.128;2022-07-17T17:36:34;10.85;;;6.55;;
22107;SDS011;11220;48.812;9.128;2022-07-17T17:39:00;11.70;;;7.32;;
22107;SDS011;11220;48.812;9.128;2022-07-17T17:41:27;11.20;;;6.82;;
22107;SDS011;11220;48.812;9.128;2022-07-17T17:43:53;12.35;;;7.43;;
22107;SDS011;11220;48.812;9.128;2022-07-17T17:46:18;9.88;;;6.20;;
22107;SDS011;11220;48.812;9.128;2022-07-17T17:48:44;9.85;;;6.80;;
22107;SDS011;11220;48.812;9.128;2022-07-17T17:51:09;9.23;;;5.93;;
22107;SDS011;11220;48.812;9.128;2022-07-17T17:53:35;9.10;;;5.95;;
22107;SDS011;11220;48.812;9.128;2022-07-17T17:56:00;9.15;;;5.85;;
22107;SDS011;11220;48.812;9.128;2022-07-17T17:58:26;10.43;;;6.20;;
22107;SDS011;11220;48.812;9.128;2022-07-17T18:00:51;8.75;;;5.28;;
22107;SDS011;11220;48.812;9.128;2022-07-17T18:03:17;6.95;;;5.35;;
22107;SDS011;11220;48.812;9.128;2022-07-17T18:05:43;8.52;;;5.07;;
22107;SDS011;11220;48.812;9.128;2022-07-17T18:08:09;9.23;;;5.65;;
22107;SDS011;11220;48.812;9.128;2022-07-17T18:10:35;7.70;;;5.45;;
22107;SDS011;11220;48.812;9.128;2022-07-17T18:13:00;7.20;;;4.70;;
22107;SDS011;11220;48.812;9.128;2022-07-17T18:15:26;8.50;;;5.18;;
22107;SDS011;11220;48.812;9.128;2022-07-17T18:17:52;8.63;;;5.40;;
22107;SDS011;11220;48.812;9.128;2022-07-17T18:20:17;7.13;;;4.93;;
22107;SDS011;11220;48.812;9.128;2022-07-17T18:22:43;6.30;;;4.28;;
22107;SDS011;11220;48.812;9.128;2022-07-17T18:25:08;7.43;;;4.68;;
22107;SDS011;11220;48.812;9.128;2022-07-17T18:27:35;6.78;;;4.30;;
22107;SDS011;11220;48.812;9.128;2022-07-17T18:30:00;6.93;;;4.35;;
22107;SDS011;11220;48.812;9.128;2022-07-17T18:32:27;5.80;;;4.07;;
22107;SDS011;11220;48.812;9.128;2022-07-17T18:34:53;6.32;;;4.10;;
22107;SDS011;11220;48.812;9.128;2022-07-17T18:37:18;7.30;;;4.35;;